sensor_id;sensor_type;location;lat;lon;timestamp;P1;durP1;ratioP1;P2;durP2;ratioP2
4232;SDS011;2130;48.472;11.934;2022-10-26T00:01:28;1.80;;;1.27;;
4232;SDS011;2130;48.472;11.934;2022-10-26T00:03:56;1.67;;;1.30;;
4232;SDS011;2130;48.472;11.934;2022-10-26T00:06:25;1.67;;;1.30;;
4232;SDS011;2130;48.472;11.934;2022-10-26T00:08:55;1.40;;;1.30;;
4232;SDS011;2130;48.472;11.934;2022-10-26T00:11:23;2.47;;;1.70;;
4232;SDS011;2130;48.472;11.934;2022-10-26T00:13:51;1.23;;;1.10;;
4232;SDS011;2130;48.472;11.934;2022-10-26T00:16:21;2.70;;;1.53;;
4232;SDS011;2130;48.472;11.934;2022-10-26T00:18:51;2.07;;;1.60;;
4232;SDS011;2130;48.472;11.934;2022-10-26T00:21:20;1.93;;;1.37;;
4232;SDS011;2130;48.472;11.934;2022-10-26T00:23:48;1.80;;;1.40;;
4232;SDS011;2130;48.472;11.934;2022-10-26T00:26:16;2.90;;;1.60;;
4232;SDS011;2130;48.472;11.934;2022-10-26T00:28:44;2.10;;;1.20;;
4232;SDS011;2130;48.472;11.934;2022-10-26T00:31:13;1.37;;;1.20;;
4232;SDS011;2130;48.472;11.934;2022-10-26T00:33:42;1.40;;;1.30;;
4232;SDS011;2130;48.472;11.934;2022-10-26T00:36:11;1.83;;;1.40;;
4232;SDS011;2130;48.472;11.934;2022-10-26T00:38:42;1.37;;;1.27;;
4232;SDS011;2130;48.472;11.934;2022-10-26T00:41:15;2.40;;;1.43;;
4232;SDS011;2130;48.472;11.934;2022-10-26T00:43:44;1.53;;;1.43;;
4232;SDS011;2130;48.472;11.934;2022-10-26T00:46:13;1.30;;;1.20;;
4232;SDS011;2130;48.472;11.934;2022-10-26T00:48:44;2.17;;;1.40;;
4232;SDS011;2130;48.472;11.934;2022-10-26T00:51:17;1.60;;;1.10;;
4232;SDS011;2130;48.472;11.934;2022-10-26T00:53:49;1.37;;;1.27;;
4232;SDS011;2130;48.472;11.934;2022-10-26T00:56:18;2.77;;;1.57;;
4232;SDS011;2130;48.472;11.934;2022-10-26T00:58:46;1.57;;;1.10;;
4232;SDS011;2130;48.472;11.934;2022-10-26T01:01:14;1.40;;;1.17;;
4232;SDS011;2130;48.472;11.934;2022-10-26T01:03:42;1.57;;;1.47;;
4232;SDS011;2130;48.472;11.934;2022-10-26T01:06:11;8.13;;;2.80;;
4232;SDS011;2130;48.472;11.934;2022-10-26T01:08:41;2.93;;;1.70;;
4232;SDS011;2130;48.472;11.934;2022-10-26T01:11:09;1.20;;;1.10;;
4232;SDS011;2130;48.472;11.934;2022-10-26T01:16:37;2.07;;;1.60;;
4232;SDS011;2130;48.472;11.934;2022-10-26T01:19:22;5.93;;;1.50;;
4232;SDS011;2130;48.472;11.934;2022-10-26T01:21:59;2.70;;;1.43;;
4232;SDS011;2130;48.472;11.934;2022-10-26T01:27:19;3.93;;;1.60;;
4232;SDS011;2130;48.472;11.934;2022-10-26T01:32:59;1.93;;;1.33;;
4232;SDS011;2130;48.472;11.934;2022-10-26T01:35:37;1.30;;;1.20;;
4232;SDS011;2130;48.472;11.934;2022-10-26T01:38:09;1.90;;;1.50;;
4232;SDS011;2130;48.472;11.934;2022-10-26T01:40:53;1.87;;;1.30;;
4232;SDS011;2130;48.472;11.934;2022-10-26T01:43:25;1.83;;;1.37;;
4232;SDS011;2130;48.472;11.934;2022-10-26T01:45:55;2.47;;;1.20;;
4232;SDS011;2130;48.472;11.934;2022-10-26T01:48:25;3.37;;;1.30;;
4232;SDS011;2130;48.472;11.934;2022-10-26T01:50:54;2.30;;;1.83;;
4232;SDS011;2130;48.472;11.934;2022-10-26T01:53:24;1.20;;;1.10;;
4232;SDS011;2130;48.472;11.934;2022-10-26T01:55:54;1.80;;;1.30;;
4232;SDS011;2130;48.472;11.934;2022-10-26T01:58:29;1.40;;;1.30;;
4232;SDS011;2130;48.472;11.934;2022-10-26T02:01:07;1.33;;;1.23;;
4232;SDS011;2130;48.472;11.934;2022-10-26T02:03:44;1.77;;;1.67;;
4232;SDS011;2130;48.472;11.934;2022-10-26T02:06:18;1.83;;;1.37;;
4232;SDS011;2130;48.472;11.934;2022-10-26T02:08:53;2.33;;;1.53;;
4232;SDS011;2130;48.472;11.934;2022-10-26T02:11:29;3.50;;;1.40;;
4232;SDS011;2130;48.472;11.934;2022-10-26T02:14:03;3.23;;;1.50;;
4232;SDS011;2130;48.472;11.934;2022-10-26T02:16:36;1.83;;;1.47;;
4232;SDS011;2130;48.472;11.934;2022-10-26T02:19:09;2.13;;;1.40;;
4232;SDS011;2130;48.472;11.934;2022-10-26T02:21:43;1.50;;;1.40;;
4232;SDS011;2130;48.472;11.934;2022-10-26T02:24:14;1.50;;;1.33;;
4232;SDS011;2130;48.472;11.934;2022-10-26T02:26:44;1.30;;;1.17;;
4232;SDS011;2130;48.472;11.934;2022-10-26T02:29:15;1.20;;;1.10;;
4232;SDS011;2130;48.472;11.934;2022-10-26T02:31:45;2.43;;;1.80;;
4232;SDS011;2130;48.472;11.934;2022-10-26T02:34:16;1.60;;;1.40;;
4232;SDS011;2130;48.472;11.934;2022-10-26T02:36:47;2.80;;;1.40;;
4232;SDS011;2130;48.472;11.934;2022-10-26T02:39:17;1.43;;;1.33;;
4232;SDS011;2130;48.472;11.934;2022-10-26T02:41:46;1.47;;;1.30;;
4232;SDS011;2130;48.472;11.934;2022-10-26T02:44:15;1.20;;;1.10;;
4232;SDS011;2130;48.472;11.934;2022-10-26T02:46:49;6.53;;;1.20;;
4232;SDS011;2130;48.472;11.934;2022-10-26T02:49:19;1.70;;;1.20;;
4232;SDS011;2130;48.472;11.934;2022-10-26T02:51:48;1.23;;;1.13;;
4232;SDS011;2130;48.472;11.934;2022-10-26T02:54:18;1.30;;;1.20;;
4232;SDS011;2130;48.472;11.934;2022-10-26T02:56:53;1.27;;;1.17;;
4232;SDS011;2130;48.472;11.934;2022-10-26T02:59:23;1.37;;;1.27;;
4232;SDS011;2130;48.472;11.934;2022-10-26T03:01:54;1.73;;;1.30;;
4232;SDS011;2130;48.472;11.934;2022-10-26T03:04:28;1.50;;;1.40;;
4232;SDS011;2130;48.472;11.934;2022-10-26T03:06:56;2.50;;;1.10;;
4232;SDS011;2130;48.472;11.934;2022-10-26T03:09:24;1.10;;;1.00;;
4232;SDS011;2130;48.472;11.934;2022-10-26T03:11:53;1.30;;;1.20;;
4232;SDS011;2130;48.472;11.934;2022-10-26T03:14:21;1.73;;;1.40;;
4232;SDS011;2130;48.472;11.934;2022-10-26T03:16:49;1.47;;;1.33;;
4232;SDS011;2130;48.472;11.934;2022-10-26T03:19:22;1.60;;;1.50;;
4232;SDS011;2130;48.472;11.934;2022-10-26T03:21:51;2.30;;;1.70;;
4232;SDS011;2130;48.472;11.934;2022-10-26T03:24:19;1.30;;;1.20;;
4232;SDS011;2130;48.472;11.934;2022-10-26T03:26:47;1.47;;;1.37;;
4232;SDS011;2130;48.472;11.934;2022-10-26T03:29:15;1.60;;;1.40;;
4232;SDS011;2130;48.472;11.934;2022-10-26T03:31:43;1.80;;;1.50;;
4232;SDS011;2130;48.472;11.934;2022-10-26T03:34:11;1.13;;;1.03;;
4232;SDS011;2130;48.472;11.934;2022-10-26T03:36:40;3.07;;;1.53;;
4232;SDS011;2130;48.472;11.934;2022-10-26T03:39:09;1.97;;;1.40;;
4232;SDS011;2130;48.472;11.934;2022-10-26T03:41:37;1.50;;;1.33;;
4232;SDS011;2130;48.472;11.934;2022-10-26T03:44:05;1.30;;;1.20;;
4232;SDS011;2130;48.472;11.934;2022-10-26T03:46:33;1.57;;;1.23;;
4232;SDS011;2130;48.472;11.934;2022-10-26T03:49:01;1.50;;;1.40;;
4232;SDS011;2130;48.472;11.934;2022-10-26T03:51:29;1.57;;;1.23;;
4232;SDS011;2130;48.472;11.934;2022-10-26T03:53:57;1.60;;;1.33;;
4232;SDS011;2130;48.472;11.934;2022-10-26T03:56:27;1.67;;;1.37;;
4232;SDS011;2130;48.472;11.934;2022-10-26T03:58:55;2.40;;;1.50;;
4232;SDS011;2130;48.472;11.934;2022-10-26T04:01:23;1.50;;;1.30;;
4232;SDS011;2130;48.472;11.934;2022-10-26T04:03:51;1.37;;;1.27;;
4232;SDS011;2130;48.472;11.934;2022-10-26T04:06:19;2.00;;;1.60;;
4232;SDS011;2130;48.472;11.934;2022-10-26T04:08:47;1.73;;;1.10;;
4232;SDS011;2130;48.472;11.934;2022-10-26T04:11:15;2.03;;;1.40;;
4232;SDS011;2130;48.472;11.934;2022-10-26T04:13:46;3.27;;;1.50;;
4232;SDS011;2130;48.472;11.934;2022-10-26T04:16:14;2.30;;;1.50;;
4232;SDS011;2130;48.472;11.934;2022-10-26T04:18:42;1.40;;;1.30;;
4232;SDS011;2130;48.472;11.934;2022-10-26T04:21:11;4.83;;;1.80;;
4232;SDS011;2130;48.472;11.934;2022-10-26T04:23:39;2.20;;;1.23;;
4232;SDS011;2130;48.472;11.934;2022-10-26T04:26:07;1.90;;;1.43;;
4232;SDS011;2130;48.472;11.934;2022-10-26T04:28:35;1.30;;;1.20;;
4232;SDS011;2130;48.472;11.934;2022-10-26T04:31:05;1.70;;;1.53;;
4232;SDS011;2130;48.472;11.934;2022-10-26T04:33:33;2.13;;;1.57;;
4232;SDS011;2130;48.472;11.934;2022-10-26T04:36:01;2.33;;;1.73;;
4232;SDS011;2130;48.472;11.934;2022-10-26T04:38:29;2.20;;;1.43;;
4232;SDS011;2130;48.472;11.934;2022-10-26T04:40:57;1.70;;;1.60;;
4232;SDS011;2130;48.472;11.934;2022-10-26T04:43:25;1.20;;;1.10;;
4232;SDS011;2130;48.472;11.934;2022-10-26T04:45:54;2.97;;;1.30;;
4232;SDS011;2130;48.472;11.934;2022-10-26T04:48:23;1.80;;;1.27;;
4232;SDS011;2130;48.472;11.934;2022-10-26T04:50:52;1.30;;;1.20;;
4232;SDS011;2130;48.472;11.934;2022-10-26T04:53:20;1.20;;;1.10;;
4232;SDS011;2130;48.472;11.934;2022-10-26T04:55:48;1.97;;;1.20;;
4232;SDS011;2130;48.472;11.934;2022-10-26T04:58:16;1.27;;;1.17;;
4232;SDS011;2130;48.472;11.934;2022-10-26T05:00:44;1.77;;;1.40;;
4232;SDS011;2130;48.472;11.934;2022-10-26T05:03:12;1.50;;;1.30;;
4232;SDS011;2130;48.472;11.934;2022-10-26T05:05:41;1.37;;;1.27;;
4232;SDS011;2130;48.472;11.934;2022-10-26T05:08:09;1.40;;;1.20;;
4232;SDS011;2130;48.472;11.934;2022-10-26T05:10:37;1.67;;;1.30;;
4232;SDS011;2130;48.472;11.934;2022-10-26T05:13:05;1.83;;;1.50;;
4232;SDS011;2130;48.472;11.934;2022-10-26T05:15:34;1.93;;;1.30;;
4232;SDS011;2130;48.472;11.934;2022-10-26T05:18:02;1.73;;;1.60;;
4232;SDS011;2130;48.472;11.934;2022-10-26T05:20:32;1.33;;;1.23;;
4232;SDS011;2130;48.472;11.934;2022-10-26T05:23:03;1.67;;;1.20;;
4232;SDS011;2130;48.472;11.934;2022-10-26T05:25:33;2.00;;;1.40;;
4232;SDS011;2130;48.472;11.934;2022-10-26T05:28:03;1.30;;;1.13;;
4232;SDS011;2130;48.472;11.934;2022-10-26T05:30:33;2.50;;;1.50;;
4232;SDS011;2130;48.472;11.934;2022-10-26T05:33:01;1.27;;;1.10;;
4232;SDS011;2130;48.472;11.934;2022-10-26T05:35:30;1.30;;;1.07;;
4232;SDS011;2130;48.472;11.934;2022-10-26T05:37:58;1.40;;;1.30;;
4232;SDS011;2130;48.472;11.934;2022-10-26T05:40:28;2.43;;;1.40;;
4232;SDS011;2130;48.472;11.934;2022-10-26T05:42:58;1.50;;;1.07;;
4232;SDS011;2130;48.472;11.934;2022-10-26T05:45:26;1.30;;;1.20;;
4232;SDS011;2130;48.472;11.934;2022-10-26T05:47:55;1.63;;;1.50;;
4232;SDS011;2130;48.472;11.934;2022-10-26T05:50:28;2.33;;;1.40;;
4232;SDS011;2130;48.472;11.934;2022-10-26T05:52:56;2.47;;;1.40;;
4232;SDS011;2130;48.472;11.934;2022-10-26T05:55:25;1.80;;;1.30;;
4232;SDS011;2130;48.472;11.934;2022-10-26T05:57:55;1.50;;;1.40;;
4232;SDS011;2130;48.472;11.934;2022-10-26T06:00:24;1.50;;;1.27;;
4232;SDS011;2130;48.472;11.934;2022-10-26T06:05:49;3.37;;;1.20;;
4232;SDS011;2130;48.472;11.934;2022-10-26T06:08:19;1.40;;;1.30;;
4232;SDS011;2130;48.472;11.934;2022-10-26T06:10:48;1.63;;;1.33;;
4232;SDS011;2130;48.472;11.934;2022-10-26T06:13:18;1.40;;;1.30;;
4232;SDS011;2130;48.472;11.934;2022-10-26T06:15:50;1.90;;;1.70;;
4232;SDS011;2130;48.472;11.934;2022-10-26T06:18:30;1.30;;;1.20;;
4232;SDS011;2130;48.472;11.934;2022-10-26T06:21:13;1.40;;;1.30;;
4232;SDS011;2130;48.472;11.934;2022-10-26T06:23:50;3.70;;;2.20;;
4232;SDS011;2130;48.472;11.934;2022-10-26T06:26:25;1.40;;;1.30;;
4232;SDS011;2130;48.472;11.934;2022-10-26T06:29:02;2.17;;;1.70;;
4232;SDS011;2130;48.472;11.934;2022-10-26T06:31:37;1.67;;;1.20;;
4232;SDS011;2130;48.472;11.934;2022-10-26T06:34:05;1.50;;;1.40;;
4232;SDS011;2130;48.472;11.934;2022-10-26T06:36:33;1.73;;;1.30;;
4232;SDS011;2130;48.472;11.934;2022-10-26T06:39:02;1.70;;;1.60;;
4232;SDS011;2130;48.472;11.934;2022-10-26T06:41:33;2.47;;;2.13;;
4232;SDS011;2130;48.472;11.934;2022-10-26T06:44:04;1.83;;;1.70;;
4232;SDS011;2130;48.472;11.934;2022-10-26T06:46:35;2.40;;;2.10;;
4232;SDS011;2130;48.472;11.934;2022-10-26T06:49:07;2.80;;;1.40;;
4232;SDS011;2130;48.472;11.934;2022-10-26T06:51:40;2.50;;;1.60;;
4232;SDS011;2130;48.472;11.934;2022-10-26T06:54:14;2.17;;;1.50;;
4232;SDS011;2130;48.472;11.934;2022-10-26T06:56:45;1.40;;;1.30;;
4232;SDS011;2130;48.472;11.934;2022-10-26T06:59:15;1.67;;;1.23;;
4232;SDS011;2130;48.472;11.934;2022-10-26T07:01:47;1.00;;;1.00;;
4232;SDS011;2130;48.472;11.934;2022-10-26T07:04:15;1.70;;;1.43;;
4232;SDS011;2130;48.472;11.934;2022-10-26T07:06:43;1.13;;;1.03;;
4232;SDS011;2130;48.472;11.934;2022-10-26T07:09:11;1.50;;;1.40;;
4232;SDS011;2130;48.472;11.934;2022-10-26T07:11:40;1.97;;;1.57;;
4232;SDS011;2130;48.472;11.934;2022-10-26T07:14:08;1.17;;;1.07;;
4232;SDS011;2130;48.472;11.934;2022-10-26T07:16:37;1.00;;;0.90;;
4232;SDS011;2130;48.472;11.934;2022-10-26T07:19:06;2.80;;;1.40;;
4232;SDS011;2130;48.472;11.934;2022-10-26T07:21:34;1.37;;;1.23;;
4232;SDS011;2130;48.472;11.934;2022-10-26T07:24:02;2.60;;;1.20;;
4232;SDS011;2130;48.472;11.934;2022-10-26T07:26:30;3.00;;;1.40;;
4232;SDS011;2130;48.472;11.934;2022-10-26T07:28:58;2.30;;;1.10;;
4232;SDS011;2130;48.472;11.934;2022-10-26T07:31:26;1.50;;;1.20;;
4232;SDS011;2130;48.472;11.934;2022-10-26T07:33:56;3.77;;;1.10;;
4232;SDS011;2130;48.472;11.934;2022-10-26T07:36:24;1.30;;;1.20;;
4232;SDS011;2130;48.472;11.934;2022-10-26T07:38:52;1.50;;;1.23;;
4232;SDS011;2130;48.472;11.934;2022-10-26T07:41:20;1.83;;;1.60;;
4232;SDS011;2130;48.472;11.934;2022-10-26T07:43:48;1.77;;;1.50;;
4232;SDS011;2130;48.472;11.934;2022-10-26T07:46:16;1.43;;;1.33;;
4232;SDS011;2130;48.472;11.934;2022-10-26T07:48:44;2.10;;;1.40;;
4232;SDS011;2130;48.472;11.934;2022-10-26T07:51:15;1.10;;;1.00;;
4232;SDS011;2130;48.472;11.934;2022-10-26T07:53:43;1.80;;;1.50;;
4232;SDS011;2130;48.472;11.934;2022-10-26T07:56:11;1.40;;;1.30;;
4232;SDS011;2130;48.472;11.934;2022-10-26T07:58:39;1.77;;;1.17;;
4232;SDS011;2130;48.472;11.934;2022-10-26T08:01:08;1.10;;;1.00;;
4232;SDS011;2130;48.472;11.934;2022-10-26T08:03:37;1.13;;;1.00;;
4232;SDS011;2130;48.472;11.934;2022-10-26T08:06:05;1.10;;;1.00;;
4232;SDS011;2130;48.472;11.934;2022-10-26T08:08:36;1.57;;;1.47;;
4232;SDS011;2130;48.472;11.934;2022-10-26T08:11:08;1.23;;;1.10;;
4232;SDS011;2130;48.472;11.934;2022-10-26T08:13:37;1.10;;;1.00;;
4232;SDS011;2130;48.472;11.934;2022-10-26T08:16:05;1.10;;;1.00;;
4232;SDS011;2130;48.472;11.934;2022-10-26T08:18:33;1.10;;;1.00;;
4232;SDS011;2130;48.472;11.934;2022-10-26T08:21:02;1.33;;;1.10;;
4232;SDS011;2130;48.472;11.934;2022-10-26T08:23:39;1.03;;;0.93;;
4232;SDS011;2130;48.472;11.934;2022-10-26T08:26:08;1.67;;;0.80;;
4232;SDS011;2130;48.472;11.934;2022-10-26T08:28:37;1.30;;;1.10;;
4232;SDS011;2130;48.472;11.934;2022-10-26T08:31:05;1.00;;;0.90;;
4232;SDS011;2130;48.472;11.934;2022-10-26T08:33:34;1.00;;;0.90;;
4232;SDS011;2130;48.472;11.934;2022-10-26T08:36:03;1.47;;;1.10;;
4232;SDS011;2130;48.472;11.934;2022-10-26T08:38:32;1.17;;;1.00;;
4232;SDS011;2130;48.472;11.934;2022-10-26T08:41:06;2.27;;;1.10;;
4232;SDS011;2130;48.472;11.934;2022-10-26T08:43:36;2.10;;;1.30;;
4232;SDS011;2130;48.472;11.934;2022-10-26T08:46:08;1.23;;;1.10;;
4232;SDS011;2130;48.472;11.934;2022-10-26T08:48:39;1.57;;;1.30;;
4232;SDS011;2130;48.472;11.934;2022-10-26T08:51:12;0.90;;;0.80;;
4232;SDS011;2130;48.472;11.934;2022-10-26T08:53:42;1.30;;;1.00;;
4232;SDS011;2130;48.472;11.934;2022-10-26T08:56:17;1.27;;;1.13;;
4232;SDS011;2130;48.472;11.934;2022-10-26T08:58:50;1.40;;;1.00;;
4232;SDS011;2130;48.472;11.934;2022-10-26T09:01:20;0.97;;;0.87;;
4232;SDS011;2130;48.472;11.934;2022-10-26T09:03:49;1.57;;;1.13;;
4232;SDS011;2130;48.472;11.934;2022-10-26T09:06:22;2.17;;;1.13;;
4232;SDS011;2130;48.472;11.934;2022-10-26T09:08:55;1.10;;;1.00;;
4232;SDS011;2130;48.472;11.934;2022-10-26T09:11:35;0.93;;;0.83;;
4232;SDS011;2130;48.472;11.934;2022-10-26T09:14:10;1.43;;;1.03;;
4232;SDS011;2130;48.472;11.934;2022-10-26T09:16:42;1.20;;;1.10;;
4232;SDS011;2130;48.472;11.934;2022-10-26T09:19:22;1.13;;;1.03;;
4232;SDS011;2130;48.472;11.934;2022-10-26T09:22:06;0.80;;;0.80;;
4232;SDS011;2130;48.472;11.934;2022-10-26T09:24:41;1.07;;;0.83;;
4232;SDS011;2130;48.472;11.934;2022-10-26T09:27:16;0.80;;;0.77;;
4232;SDS011;2130;48.472;11.934;2022-10-26T09:29:46;0.90;;;0.80;;
4232;SDS011;2130;48.472;11.934;2022-10-26T09:32:16;0.80;;;0.80;;
4232;SDS011;2130;48.472;11.934;2022-10-26T09:34:47;1.00;;;0.90;;
4232;SDS011;2130;48.472;11.934;2022-10-26T09:37:17;0.70;;;0.60;;
4232;SDS011;2130;48.472;11.934;2022-10-26T09:39:51;1.00;;;0.90;;
4232;SDS011;2130;48.472;11.934;2022-10-26T09:42:25;1.00;;;0.90;;
4232;SDS011;2130;48.472;11.934;2022-10-26T09:44:57;1.00;;;0.90;;
4232;SDS011;2130;48.472;11.934;2022-10-26T09:47:32;0.90;;;0.80;;
4232;SDS011;2130;48.472;11.934;2022-10-26T09:50:05;1.63;;;1.27;;
4232;SDS011;2130;48.472;11.934;2022-10-26T09:52:40;0.70;;;0.70;;
4232;SDS011;2130;48.472;11.934;2022-10-26T09:55:09;1.10;;;0.90;;
4232;SDS011;2130;48.472;11.934;2022-10-26T09:57:39;0.97;;;0.80;;
4232;SDS011;2130;48.472;11.934;2022-10-26T10:00:11;0.80;;;0.70;;
4232;SDS011;2130;48.472;11.934;2022-10-26T10:02:41;0.87;;;0.80;;
4232;SDS011;2130;48.472;11.934;2022-10-26T10:05:29;1.03;;;0.77;;
4232;SDS011;2130;48.472;11.934;2022-10-26T10:08:18;1.00;;;0.77;;
4232;SDS011;2130;48.472;11.934;2022-10-26T10:11:00;0.80;;;0.80;;
4232;SDS011;2130;48.472;11.934;2022-10-26T10:13:31;2.60;;;0.97;;
4232;SDS011;2130;48.472;11.934;2022-10-26T10:16:02;0.97;;;0.77;;
4232;SDS011;2130;48.472;11.934;2022-10-26T10:18:32;1.13;;;0.77;;
4232;SDS011;2130;48.472;11.934;2022-10-26T10:21:00;1.03;;;0.77;;
4232;SDS011;2130;48.472;11.934;2022-10-26T10:23:31;1.27;;;0.90;;
4232;SDS011;2130;48.472;11.934;2022-10-26T10:26:06;1.00;;;0.90;;
4232;SDS011;2130;48.472;11.934;2022-10-26T10:28:37;0.80;;;0.80;;
4232;SDS011;2130;48.472;11.934;2022-10-26T10:31:17;1.13;;;0.70;;
4232;SDS011;2130;48.472;11.934;2022-10-26T10:33:47;1.03;;;0.90;;
4232;SDS011;2130;48.472;11.934;2022-10-26T10:36:17;0.87;;;0.80;;
4232;SDS011;2130;48.472;11.934;2022-10-26T10:38:47;6.73;;;0.80;;
4232;SDS011;2130;48.472;11.934;2022-10-26T10:41:20;1.00;;;0.90;;
4232;SDS011;2130;48.472;11.934;2022-10-26T10:43:54;0.80;;;0.80;;
4232;SDS011;2130;48.472;11.934;2022-10-26T10:46:29;0.80;;;0.70;;
4232;SDS011;2130;48.472;11.934;2022-10-26T10:49:01;1.97;;;1.00;;
4232;SDS011;2130;48.472;11.934;2022-10-26T10:51:34;1.00;;;0.80;;
4232;SDS011;2130;48.472;11.934;2022-10-26T10:54:03;1.77;;;1.00;;
4232;SDS011;2130;48.472;11.934;2022-10-26T10:56:33;0.90;;;0.73;;
4232;SDS011;2130;48.472;11.934;2022-10-26T10:59:10;2.50;;;0.90;;
4232;SDS011;2130;48.472;11.934;2022-10-26T11:01:47;1.20;;;0.90;;
4232;SDS011;2130;48.472;11.934;2022-10-26T11:04:24;1.40;;;1.07;;
4232;SDS011;2130;48.472;11.934;2022-10-26T11:07:01;6.80;;;1.50;;
4232;SDS011;2130;48.472;11.934;2022-10-26T11:09:31;1.10;;;0.90;;
4232;SDS011;2130;48.472;11.934;2022-10-26T11:12:02;1.17;;;0.90;;
4232;SDS011;2130;48.472;11.934;2022-10-26T11:14:38;0.97;;;0.80;;
4232;SDS011;2130;48.472;11.934;2022-10-26T11:17:13;1.17;;;0.90;;
4232;SDS011;2130;48.472;11.934;2022-10-26T11:19:45;1.13;;;0.80;;
4232;SDS011;2130;48.472;11.934;2022-10-26T11:22:16;2.27;;;0.90;;
4232;SDS011;2130;48.472;11.934;2022-10-26T11:24:48;1.03;;;0.90;;
4232;SDS011;2130;48.472;11.934;2022-10-26T11:27:18;3.00;;;1.00;;
4232;SDS011;2130;48.472;11.934;2022-10-26T11:29:50;2.50;;;0.87;;
4232;SDS011;2130;48.472;11.934;2022-10-26T11:32:23;0.80;;;0.80;;
4232;SDS011;2130;48.472;11.934;2022-10-26T11:34:57;0.80;;;0.70;;
4232;SDS011;2130;48.472;11.934;2022-10-26T11:37:28;0.80;;;0.70;;
4232;SDS011;2130;48.472;11.934;2022-10-26T11:40:03;1.63;;;0.80;;
4232;SDS011;2130;48.472;11.934;2022-10-26T11:42:37;1.00;;;0.90;;
4232;SDS011;2130;48.472;11.934;2022-10-26T11:45:10;1.10;;;0.87;;
4232;SDS011;2130;48.472;11.934;2022-10-26T11:47:43;1.40;;;0.87;;
4232;SDS011;2130;48.472;11.934;2022-10-26T11:50:16;1.10;;;1.00;;
4232;SDS011;2130;48.472;11.934;2022-10-26T11:52:47;1.00;;;0.80;;
4232;SDS011;2130;48.472;11.934;2022-10-26T11:55:18;1.00;;;0.80;;
4232;SDS011;2130;48.472;11.934;2022-10-26T11:57:46;1.17;;;0.80;;
4232;SDS011;2130;48.472;11.934;2022-10-26T12:00:17;0.80;;;0.73;;
4232;SDS011;2130;48.472;11.934;2022-10-26T12:02:47;1.80;;;0.93;;
4232;SDS011;2130;48.472;11.934;2022-10-26T12:05:21;1.27;;;0.87;;
4232;SDS011;2130;48.472;11.934;2022-10-26T12:08:00;2.27;;;0.80;;
4232;SDS011;2130;48.472;11.934;2022-10-26T12:10:32;0.90;;;0.73;;
4232;SDS011;2130;48.472;11.934;2022-10-26T12:13:05;1.27;;;0.80;;
4232;SDS011;2130;48.472;11.934;2022-10-26T12:15:40;0.80;;;0.70;;
4232;SDS011;2130;48.472;11.934;2022-10-26T12:18:32;0.97;;;0.80;;
4232;SDS011;2130;48.472;11.934;2022-10-26T12:21:20;1.30;;;0.97;;
4232;SDS011;2130;48.472;11.934;2022-10-26T12:23:52;0.90;;;0.70;;
4232;SDS011;2130;48.472;11.934;2022-10-26T12:29:25;1.83;;;1.00;;
4232;SDS011;2130;48.472;11.934;2022-10-26T12:32:04;2.30;;;1.20;;
4232;SDS011;2130;48.472;11.934;2022-10-26T12:38:53;1.77;;;0.90;;
4232;SDS011;2130;48.472;11.934;2022-10-26T12:41:27;0.97;;;0.70;;
4232;SDS011;2130;48.472;11.934;2022-10-26T12:43:56;0.80;;;0.70;;
4232;SDS011;2130;48.472;11.934;2022-10-26T12:52:27;1.03;;;0.73;;
4232;SDS011;2130;48.472;11.934;2022-10-26T12:58:03;1.67;;;0.93;;
4232;SDS011;2130;48.472;11.934;2022-10-26T13:00:52;0.80;;;0.70;;
4232;SDS011;2130;48.472;11.934;2022-10-26T13:03:37;0.90;;;0.80;;
4232;SDS011;2130;48.472;11.934;2022-10-26T13:06:16;1.13;;;1.00;;
4232;SDS011;2130;48.472;11.934;2022-10-26T13:09:06;1.07;;;0.70;;
4232;SDS011;2130;48.472;11.934;2022-10-26T13:11:35;1.03;;;0.70;;
4232;SDS011;2130;48.472;11.934;2022-10-26T13:14:15;1.03;;;0.83;;
4232;SDS011;2130;48.472;11.934;2022-10-26T13:16:45;1.10;;;0.77;;
4232;SDS011;2130;48.472;11.934;2022-10-26T13:19:23;0.80;;;0.70;;
4232;SDS011;2130;48.472;11.934;2022-10-26T13:21:52;0.80;;;0.80;;
4232;SDS011;2130;48.472;11.934;2022-10-26T13:24:21;0.77;;;0.70;;
4232;SDS011;2130;48.472;11.934;2022-10-26T13:30:15;0.90;;;0.80;;
4232;SDS011;2130;48.472;11.934;2022-10-26T13:32:49;0.90;;;0.80;;
4232;SDS011;2130;48.472;11.934;2022-10-26T13:35:20;1.53;;;0.93;;
4232;SDS011;2130;48.472;11.934;2022-10-26T13:37:49;1.00;;;0.80;;
4232;SDS011;2130;48.472;11.934;2022-10-26T13:40:19;0.83;;;0.77;;
4232;SDS011;2130;48.472;11.934;2022-10-26T13:42:49;0.90;;;0.70;;
4232;SDS011;2130;48.472;11.934;2022-10-26T13:45:21;2.20;;;1.10;;
4232;SDS011;2130;48.472;11.934;2022-10-26T13:47:54;1.20;;;0.90;;
4232;SDS011;2130;48.472;11.934;2022-10-26T13:50:25;0.97;;;0.70;;
4232;SDS011;2130;48.472;11.934;2022-10-26T13:52:58;1.43;;;1.17;;
4232;SDS011;2130;48.472;11.934;2022-10-26T13:55:28;1.10;;;0.90;;
4232;SDS011;2130;48.472;11.934;2022-10-26T13:58:01;0.83;;;0.80;;
4232;SDS011;2130;48.472;11.934;2022-10-26T14:00:38;2.67;;;1.10;;
4232;SDS011;2130;48.472;11.934;2022-10-26T14:03:12;0.80;;;0.80;;
4232;SDS011;2130;48.472;11.934;2022-10-26T14:05:41;0.90;;;0.80;;
4232;SDS011;2130;48.472;11.934;2022-10-26T14:08:11;1.60;;;0.90;;
4232;SDS011;2130;48.472;11.934;2022-10-26T14:10:44;1.10;;;1.00;;
4232;SDS011;2130;48.472;11.934;2022-10-26T14:13:14;1.37;;;1.27;;
4232;SDS011;2130;48.472;11.934;2022-10-26T14:15:45;0.83;;;0.83;;
4232;SDS011;2130;48.472;11.934;2022-10-26T14:18:14;1.43;;;1.00;;
4232;SDS011;2130;48.472;11.934;2022-10-26T14:20:46;2.73;;;1.10;;
4232;SDS011;2130;48.472;11.934;2022-10-26T14:23:24;1.00;;;0.90;;
4232;SDS011;2130;48.472;11.934;2022-10-26T14:25:53;1.67;;;1.07;;
4232;SDS011;2130;48.472;11.934;2022-10-26T14:28:25;2.80;;;0.90;;
4232;SDS011;2130;48.472;11.934;2022-10-26T14:33:47;1.23;;;1.00;;
4232;SDS011;2130;48.472;11.934;2022-10-26T14:36:16;1.20;;;0.80;;
4232;SDS011;2130;48.472;11.934;2022-10-26T14:38:46;1.40;;;1.00;;
4232;SDS011;2130;48.472;11.934;2022-10-26T14:41:16;1.07;;;0.97;;
4232;SDS011;2130;48.472;11.934;2022-10-26T14:43:44;1.07;;;0.97;;
4232;SDS011;2130;48.472;11.934;2022-10-26T14:46:13;1.37;;;0.83;;
4232;SDS011;2130;48.472;11.934;2022-10-26T14:48:50;1.20;;;0.80;;
4232;SDS011;2130;48.472;11.934;2022-10-26T14:51:25;1.83;;;1.07;;
4232;SDS011;2130;48.472;11.934;2022-10-26T14:53:54;1.10;;;0.90;;
4232;SDS011;2130;48.472;11.934;2022-10-26T14:56:25;1.83;;;1.17;;
4232;SDS011;2130;48.472;11.934;2022-10-26T14:58:55;1.20;;;0.90;;
4232;SDS011;2130;48.472;11.934;2022-10-26T15:01:28;1.23;;;1.10;;
4232;SDS011;2130;48.472;11.934;2022-10-26T15:04:04;1.67;;;1.13;;
4232;SDS011;2130;48.472;11.934;2022-10-26T15:06:40;1.20;;;0.90;;
4232;SDS011;2130;48.472;11.934;2022-10-26T15:12:00;6.43;;;2.10;;
4232;SDS011;2130;48.472;11.934;2022-10-26T15:14:30;1.30;;;1.20;;
4232;SDS011;2130;48.472;11.934;2022-10-26T15:17:00;2.50;;;1.67;;
4232;SDS011;2130;48.472;11.934;2022-10-26T15:19:29;1.47;;;1.30;;
4232;SDS011;2130;48.472;11.934;2022-10-26T15:21:58;2.27;;;1.20;;
4232;SDS011;2130;48.472;11.934;2022-10-26T15:24:35;2.37;;;1.40;;
4232;SDS011;2130;48.472;11.934;2022-10-26T15:27:10;1.10;;;1.00;;
4232;SDS011;2130;48.472;11.934;2022-10-26T15:29:40;1.70;;;1.40;;
4232;SDS011;2130;48.472;11.934;2022-10-26T15:32:26;1.50;;;1.33;;
4232;SDS011;2130;48.472;11.934;2022-10-26T15:35:20;1.70;;;1.40;;
4232;SDS011;2130;48.472;11.934;2022-10-26T15:37:50;2.80;;;1.13;;
4232;SDS011;2130;48.472;11.934;2022-10-26T15:40:20;1.23;;;1.10;;
4232;SDS011;2130;48.472;11.934;2022-10-26T15:42:49;1.83;;;1.30;;
4232;SDS011;2130;48.472;11.934;2022-10-26T15:45:19;1.03;;;0.93;;
4232;SDS011;2130;48.472;11.934;2022-10-26T15:47:48;2.07;;;1.30;;
4232;SDS011;2130;48.472;11.934;2022-10-26T15:50:19;1.47;;;1.10;;
4232;SDS011;2130;48.472;11.934;2022-10-26T15:52:48;1.53;;;1.40;;
4232;SDS011;2130;48.472;11.934;2022-10-26T15:55:17;1.87;;;1.40;;
4232;SDS011;2130;48.472;11.934;2022-10-26T15:57:45;1.93;;;1.60;;
4232;SDS011;2130;48.472;11.934;2022-10-26T16:00:15;2.60;;;1.80;;
4232;SDS011;2130;48.472;11.934;2022-10-26T16:02:43;2.67;;;1.87;;